createdAt,value
2023-01-02T00:02:01.384Z,4.05
2023-01-02T00:04:27.923Z,3.80
2023-01-02T00:06:54.473Z,4.70
2023-01-02T00:09:21.027Z,4.85
2023-01-02T00:11:47.514Z,4.60
2023-01-02T00:14:13.962Z,3.78
2023-01-02T00:16:40.474Z,4.63
2023-01-02T00:19:08.705Z,3.08
2023-01-02T00:21:35.311Z,3.63
2023-01-02T00:24:01.978Z,3.75
2023-01-02T00:26:30.374Z,3.92
2023-01-02T00:28:57.326Z,4.23
2023-01-02T00:31:23.955Z,4.40
2023-01-02T00:33:50.553Z,3.13
2023-01-02T00:36:17.010Z,4.30
2023-01-02T00:38:43.691Z,4.43
2023-01-02T00:41:10.415Z,4.20
2023-01-02T00:43:37.283Z,3.50
2023-01-02T00:46:09.427Z,4.28
2023-01-02T00:48:37.984Z,3.92
2023-01-02T00:51:04.554Z,4.28
2023-01-02T00:53:31.099Z,3.17
2023-01-02T00:55:57.600Z,4.07
2023-01-02T00:58:24.052Z,4.47
2023-01-02T01:00:51.644Z,4.20
2023-01-02T01:03:18.528Z,4.47
2023-01-02T01:05:45.164Z,3.17
2023-01-02T01:08:11.701Z,2.95
2023-01-02T01:10:38.387Z,4.03
2023-01-02T01:13:05.504Z,3.45
2023-01-02T01:15:33.365Z,4.05
2023-01-02T01:17:59.917Z,3.73
2023-01-02T01:20:26.495Z,3.03
2023-01-02T01:22:52.990Z,3.08
2023-01-02T01:25:19.529Z,3.78
2023-01-02T01:27:46.163Z,3.58
2023-01-02T01:30:12.847Z,3.73
2023-01-02T01:32:39.367Z,3.78
2023-01-02T01:35:06.642Z,3.20
2023-01-02T01:37:33.123Z,3.92
2023-01-02T01:39:59.644Z,3.65
2023-01-02T01:42:32.786Z,3.80
2023-01-02T01:44:59.399Z,3.65
2023-01-02T01:47:37.951Z,3.20
2023-01-02T01:50:16.742Z,4.55
2023-01-02T01:52:54.525Z,3.60
2023-01-02T01:55:24.003Z,3.43
2023-01-02T01:57:58.667Z,3.60
2023-01-02T02:00:25.193Z,3.72
2023-01-02T02:02:56.809Z,3.55
2023-01-02T02:05:27.433Z,3.72
2023-01-02T02:08:10.664Z,3.47
2023-01-02T02:10:38.204Z,3.53
2023-01-02T02:13:05.224Z,3.72
2023-01-02T02:15:42.375Z,3.38
2023-01-02T02:18:24.458Z,3.90
2023-01-02T02:21:17.355Z,2.97
2023-01-02T02:24:36.344Z,3.67
2023-01-02T02:27:14.675Z,3.42
2023-01-02T02:29:53.027Z,3.40
2023-01-02T02:32:42.203Z,3.50
2023-01-02T02:35:29.091Z,2.93
2023-01-02T02:38:12.065Z,2.47
2023-01-02T02:40:50.455Z,3.35
2023-01-02T02:43:49.125Z,3.28
2023-01-02T02:46:33.655Z,3.40
2023-01-02T02:49:21.357Z,2.83
2023-01-02T02:52:00.507Z,3.30
2023-01-02T02:54:35.392Z,3.50
2023-01-02T02:57:03.823Z,3.70
2023-01-02T02:59:30.882Z,3.00
2023-01-02T03:01:57.466Z,4.00
2023-01-02T03:04:24.070Z,3.40
2023-01-02T03:07:15.656Z,3.22
2023-01-02T03:10:10.454Z,2.50
2023-01-02T03:12:49.938Z,3.13
2023-01-02T03:15:24.614Z,2.87
2023-01-02T03:18:25.402Z,2.67
2023-01-02T03:21:38.307Z,2.60
2023-01-02T03:24:08.882Z,2.97
2023-01-02T03:26:38.775Z,3.25
2023-01-02T03:29:12.643Z,2.77
2023-01-02T03:31:42.895Z,3.30
2023-01-02T03:34:16.774Z,2.67
2023-01-02T03:36:50.015Z,3.83
2023-01-02T03:39:20.365Z,3.67
2023-01-02T03:41:55.683Z,3.63
2023-01-02T03:44:28.410Z,4.00
2023-01-02T03:47:19.012Z,3.35
2023-01-02T03:49:51.444Z,3.53
2023-01-02T03:52:24.080Z,3.50
2023-01-02T03:54:53.684Z,3.47
2023-01-02T03:57:38.200Z,4.35
2023-01-02T04:00:08.862Z,3.70
2023-01-02T04:02:44.379Z,4.70
2023-01-02T04:05:20.720Z,3.85
2023-01-02T04:08:13.813Z,3.73
2023-01-02T04:10:44.023Z,4.00
2023-01-02T04:13:21.843Z,2.88
2023-01-02T04:15:50.429Z,2.97
2023-01-02T04:18:25.173Z,2.20
2023-01-02T04:20:56.805Z,1.73
2023-01-02T04:23:36.794Z,2.00
2023-01-02T04:26:09.976Z,1.67
2023-01-02T04:28:36.795Z,1.60
2023-01-02T04:31:07.836Z,1.30
2023-01-02T04:33:40.046Z,1.73
2023-01-02T04:36:11.144Z,1.55
2023-01-02T04:38:38.084Z,1.30
2023-01-02T04:41:06.290Z,1.38
2023-01-02T04:43:32.914Z,1.67
2023-01-02T04:45:59.462Z,1.30
2023-01-02T04:48:26.064Z,1.60
2023-01-02T04:50:54.974Z,1.52
2023-01-02T04:53:21.985Z,1.80
2023-01-02T04:55:48.442Z,1.83
2023-01-02T04:58:15.074Z,1.67
2023-01-02T05:00:41.660Z,1.73
2023-01-02T05:03:08.152Z,1.60
2023-01-02T05:05:34.718Z,2.13
2023-01-02T05:08:01.195Z,2.22
2023-01-02T05:10:27.738Z,1.40
2023-01-02T05:12:54.257Z,1.85
2023-01-02T05:15:20.719Z,2.20
2023-01-02T05:17:47.248Z,1.80
2023-01-02T05:20:13.947Z,1.33
2023-01-02T05:23:00.866Z,2.13
2023-01-02T05:25:27.889Z,3.25
2023-01-02T05:27:55.072Z,3.05
2023-01-02T05:30:22.369Z,2.80
2023-01-02T05:32:49.284Z,1.95
2023-01-02T05:35:16.239Z,1.90
2023-01-02T05:37:42.736Z,2.53
2023-01-02T05:40:09.859Z,1.60
2023-01-02T05:42:36.371Z,1.88
2023-01-02T05:45:03.416Z,1.83
2023-01-02T05:47:30.079Z,1.83
2023-01-02T05:49:56.670Z,1.42
2023-01-02T05:52:23.125Z,1.48
2023-01-02T05:54:49.620Z,1.33
2023-01-02T05:57:16.100Z,1.27
2023-01-02T05:59:42.593Z,1.00
2023-01-02T06:02:09.207Z,1.33
2023-01-02T06:04:35.755Z,1.55
2023-01-02T06:07:02.237Z,1.70
2023-01-02T06:09:28.760Z,1.77
2023-01-02T06:11:55.323Z,1.93
2023-01-02T06:14:24.075Z,1.42
2023-01-02T06:16:50.658Z,1.17
2023-01-02T06:19:17.179Z,2.13
2023-01-02T06:21:43.616Z,1.50
2023-01-02T06:24:10.137Z,1.80
2023-01-02T06:26:36.689Z,1.50
2023-01-02T06:29:03.961Z,1.20
2023-01-02T06:31:33.255Z,1.60
2023-01-02T06:34:02.008Z,1.63
2023-01-02T06:36:33.641Z,1.10
2023-01-02T06:39:00.180Z,1.10
2023-01-02T06:41:26.843Z,1.17
2023-01-02T06:43:53.500Z,1.20
2023-01-02T06:46:21.800Z,1.30
2023-01-02T06:48:48.875Z,1.30
2023-01-02T06:51:18.127Z,1.60
2023-01-02T06:53:45.812Z,1.30
2023-01-02T06:56:13.791Z,1.00
2023-01-02T06:58:40.556Z,1.45
2023-01-02T07:01:18.751Z,2.40
2023-01-02T07:03:45.938Z,1.05
2023-01-02T07:06:17.023Z,1.08
2023-01-02T07:08:44.186Z,1.10
2023-01-02T07:11:13.247Z,1.25
2023-01-02T07:13:41.239Z,1.55
2023-01-02T07:16:10.762Z,1.85
2023-01-02T07:18:37.801Z,1.50
2023-01-02T07:21:05.751Z,1.30
2023-01-02T07:23:32.761Z,1.10
2023-01-02T07:26:01.982Z,1.23
2023-01-02T07:28:29.672Z,1.20
2023-01-02T07:30:58.183Z,1.42
2023-01-02T07:33:25.776Z,1.40
2023-01-02T07:35:52.278Z,1.13
2023-01-02T07:38:18.812Z,1.63
2023-01-02T07:40:45.314Z,2.13
2023-01-02T07:43:11.810Z,1.70
2023-01-02T07:45:38.330Z,1.60
2023-01-02T07:48:05.038Z,2.63
2023-01-02T07:50:31.635Z,2.42
2023-01-02T07:52:58.090Z,1.88
2023-01-02T07:55:24.587Z,1.88
2023-01-02T07:57:51.099Z,1.60
2023-01-02T08:00:18.993Z,2.20
2023-01-02T08:02:46.622Z,2.20
2023-01-02T08:05:13.090Z,2.70
2023-01-02T08:07:44.855Z,2.10
2023-01-02T08:10:12.508Z,2.40
2023-01-02T08:12:39.624Z,1.95
2023-01-02T08:15:06.736Z,2.63
2023-01-02T08:17:33.369Z,3.42
2023-01-02T08:20:05.074Z,3.60
2023-01-02T08:22:34.465Z,3.70
2023-01-02T08:25:00.955Z,3.55
2023-01-02T08:27:27.446Z,3.90
2023-01-02T08:29:53.924Z,3.85
2023-01-02T08:32:20.503Z,3.80
2023-01-02T08:34:47.064Z,4.47
2023-01-02T08:37:13.943Z,4.30
2023-01-02T08:39:40.479Z,5.05
2023-01-02T08:42:07.146Z,4.90
2023-01-02T08:44:35.174Z,5.45
2023-01-02T08:47:01.679Z,4.82
2023-01-02T08:49:28.161Z,5.80
2023-01-02T08:51:54.702Z,5.90
2023-01-02T08:54:21.249Z,6.68
2023-01-02T08:56:48.517Z,5.80
2023-01-02T08:59:15.262Z,7.90
2023-01-02T09:01:42.745Z,6.55
2023-01-02T09:04:12.825Z,6.88
2023-01-02T09:06:40.633Z,7.45
2023-01-02T09:09:12.039Z,7.43
2023-01-02T09:11:49.052Z,7.20
2023-01-02T09:14:16.383Z,7.88
2023-01-02T09:16:42.999Z,7.50
2023-01-02T09:19:09.520Z,6.93
2023-01-02T09:21:36.168Z,6.75
2023-01-02T09:24:02.815Z,7.13
2023-01-02T09:26:29.504Z,5.82
2023-01-02T09:28:56.038Z,7.15
2023-01-02T09:31:22.703Z,6.57
2023-01-02T09:33:49.699Z,6.82
2023-01-02T09:36:18.248Z,6.83
2023-01-02T09:38:49.950Z,6.88
2023-01-02T09:41:41.252Z,6.43
2023-01-02T09:44:16.307Z,5.00
2023-01-02T09:46:49.572Z,6.47
2023-01-02T09:49:20.571Z,6.50
2023-01-02T09:51:47.752Z,7.20
2023-01-02T09:54:25.507Z,6.05
2023-01-02T09:57:03.390Z,5.80
2023-01-02T09:59:35.359Z,4.55
2023-01-02T10:02:47.869Z,4.60
2023-01-02T10:05:49.099Z,4.20
2023-01-02T10:08:50.273Z,5.10
2023-01-02T10:11:48.178Z,4.82
2023-01-02T10:14:44.269Z,6.25
2023-01-02T10:17:15.406Z,4.45
2023-01-02T10:19:44.277Z,5.88
2023-01-02T10:22:17.545Z,4.80
2023-01-02T10:25:01.680Z,4.20
2023-01-02T10:27:36.290Z,4.90
2023-01-02T10:30:18.588Z,4.43
2023-01-02T10:32:53.058Z,4.47
2023-01-02T10:35:41.011Z,4.20
2023-01-02T10:38:12.024Z,3.58
2023-01-02T10:40:44.692Z,4.15
2023-01-02T10:43:12.023Z,4.00
2023-01-02T10:45:38.767Z,3.58
2023-01-02T10:48:06.010Z,3.33
2023-01-02T10:50:42.079Z,3.90
2023-01-02T10:53:19.883Z,4.00
2023-01-02T10:55:46.807Z,2.60
2023-01-02T10:58:16.291Z,3.28
2023-01-02T11:00:42.884Z,3.67
2023-01-02T11:03:21.174Z,3.42
2023-01-02T11:05:51.115Z,3.33
2023-01-02T11:08:21.991Z,4.20
2023-01-02T11:10:50.230Z,3.38
2023-01-02T11:13:19.968Z,3.08
2023-01-02T11:15:53.909Z,2.92
2023-01-02T11:18:30.703Z,3.35
2023-01-02T11:21:04.325Z,3.03
2023-01-02T11:23:40.857Z,3.30
2023-01-02T11:26:21.199Z,4.22
2023-01-02T11:28:50.755Z,3.72
2023-01-02T11:31:18.808Z,4.45
2023-01-02T11:33:46.300Z,3.63
2023-01-02T11:36:12.773Z,4.30
2023-01-02T11:38:58.928Z,5.10
2023-01-02T11:42:07.993Z,5.38
2023-01-02T11:45:11.067Z,5.47
2023-01-02T11:47:45.242Z,5.28
2023-01-02T11:50:22.143Z,4.70
2023-01-02T11:52:55.029Z,4.43
2023-01-02T11:55:46.413Z,4.10
2023-01-02T11:58:30.343Z,4.35
2023-01-02T12:01:03.601Z,4.37
2023-01-02T12:03:33.064Z,5.20
2023-01-02T12:06:05.685Z,4.28
2023-01-02T12:08:51.666Z,4.05
2023-01-02T12:11:43.226Z,4.13
2023-01-02T12:14:21.829Z,4.47
2023-01-02T12:16:55.613Z,3.10
2023-01-02T12:20:04.907Z,4.15
2023-01-02T12:22:39.468Z,3.55
2023-01-02T12:25:13.865Z,3.85
2023-01-02T12:27:56.104Z,4.67
2023-01-02T12:30:24.113Z,3.22
2023-01-02T12:32:55.673Z,2.42
2023-01-02T12:35:49.722Z,2.90
2023-01-02T12:38:41.710Z,2.55
2023-01-02T12:41:20.009Z,3.03
2023-01-02T12:44:03.457Z,3.47
2023-01-02T12:46:42.085Z,2.85
2023-01-02T12:49:39.269Z,2.90
2023-01-02T12:52:14.575Z,2.50
2023-01-02T12:54:56.711Z,2.17
2023-01-02T12:57:40.789Z,2.47
2023-01-02T13:00:48.783Z,1.77
2023-01-02T13:03:39.809Z,2.28
2023-01-02T13:06:45.889Z,2.28
2023-01-02T13:09:22.988Z,1.98
2023-01-02T13:12:10.866Z,2.08
2023-01-02T13:15:00.435Z,2.78
2023-01-02T13:17:57.876Z,1.75
2023-01-02T13:20:38.171Z,1.30
2023-01-02T13:23:51.848Z,1.67
2023-01-02T13:26:24.773Z,1.75
2023-01-02T13:29:06.845Z,1.80
2023-01-02T13:31:46.642Z,1.73
2023-01-02T13:34:22.341Z,1.98
2023-01-02T13:36:50.606Z,2.50
2023-01-02T13:39:25.577Z,2.38
2023-01-02T13:42:17.173Z,2.38
2023-01-02T13:44:48.207Z,2.40
2023-01-02T13:47:25.531Z,1.90
2023-01-02T13:50:11.857Z,2.37
2023-01-02T13:52:40.439Z,1.95
2023-01-02T13:55:20.997Z,2.45
2023-01-02T13:58:17.953Z,2.55
2023-01-02T14:00:54.823Z,2.53
2023-01-02T14:03:24.756Z,2.60
2023-01-02T14:06:00.705Z,2.65
2023-01-02T14:08:35.601Z,2.80
2023-01-02T14:11:10.089Z,2.58
2023-01-02T14:13:45.298Z,2.50
2023-01-02T14:16:38.008Z,2.40
2023-01-02T14:19:13.378Z,2.08
2023-01-02T14:21:42.521Z,2.53
2023-01-02T14:24:16.852Z,2.17
2023-01-02T14:26:52.663Z,2.88
2023-01-02T14:29:20.136Z,2.40
2023-01-02T14:31:47.615Z,2.50
2023-01-02T14:34:24.027Z,2.20
2023-01-02T14:36:53.526Z,2.63
2023-01-02T14:39:33.733Z,2.10
2023-01-02T14:42:41.733Z,2.33
2023-01-02T14:45:15.364Z,2.65
2023-01-02T14:47:53.402Z,2.20
2023-01-02T14:50:25.047Z,2.15
2023-01-02T14:53:03.900Z,2.40
2023-01-02T14:55:41.557Z,2.47
2023-01-02T14:58:25.395Z,2.25
2023-01-02T15:00:59.079Z,2.20
2023-01-02T15:03:40.820Z,2.05
2023-01-02T15:06:41.662Z,2.72
2023-01-02T15:09:15.377Z,2.90
2023-01-02T15:12:14.276Z,2.53
2023-01-02T15:14:42.168Z,2.95
2023-01-02T15:17:13.145Z,2.70
2023-01-02T15:19:44.822Z,3.17
2023-01-02T15:22:15.894Z,3.10
2023-01-02T15:24:48.276Z,3.67
2023-01-02T15:27:26.511Z,2.95
2023-01-02T15:29:58.862Z,2.75
2023-01-02T15:32:32.099Z,3.13
2023-01-02T15:35:11.507Z,3.90
2023-01-02T15:37:42.684Z,4.18
2023-01-02T15:40:20.296Z,3.42
2023-01-02T15:43:06.876Z,3.67
2023-01-02T15:45:33.751Z,3.25
2023-01-02T15:48:00.645Z,3.60
2023-01-02T15:50:31.858Z,3.05
2023-01-02T15:53:02.072Z,2.70
2023-01-02T15:55:33.953Z,1.92
2023-01-02T15:58:20.680Z,2.28
2023-01-02T16:00:47.278Z,1.73
2023-01-02T16:04:02.202Z,2.35
2023-01-02T16:06:34.229Z,2.30
2023-01-02T16:09:04.020Z,1.90
2023-01-02T16:11:33.724Z,1.90
2023-01-02T16:14:18.801Z,2.22
2023-01-02T16:16:57.620Z,1.70
2023-01-02T16:19:27.289Z,2.35
2023-01-02T16:22:04.798Z,1.88
2023-01-02T16:24:35.301Z,2.17
2023-01-02T16:27:02.216Z,1.50
2023-01-02T16:29:28.972Z,2.20
2023-01-02T16:31:57.629Z,2.42
2023-01-02T16:34:31.322Z,2.20
2023-01-02T16:37:15.777Z,2.17
2023-01-02T16:39:46.949Z,2.15
2023-01-02T16:42:39.417Z,2.15
2023-01-02T16:45:06.606Z,2.55
2023-01-02T16:47:37.690Z,2.50
2023-01-02T16:50:08.058Z,2.50
2023-01-02T16:52:38.597Z,2.58
2023-01-02T16:55:05.594Z,2.50
2023-01-02T16:57:34.993Z,1.90
2023-01-02T17:00:01.512Z,2.38
2023-01-02T17:02:28.122Z,2.00
2023-01-02T17:04:54.931Z,2.63
2023-01-02T17:07:22.602Z,2.10
2023-01-02T17:09:49.633Z,2.45
2023-01-02T17:12:16.209Z,2.25
2023-01-02T17:14:42.735Z,2.10
2023-01-02T17:17:09.237Z,1.80
2023-01-02T17:19:35.745Z,2.03
2023-01-02T17:22:02.311Z,2.45
2023-01-02T17:24:28.941Z,2.95
2023-01-02T17:26:55.702Z,3.78
2023-01-02T17:29:22.255Z,11.90
2023-01-02T17:31:48.808Z,16.25
2023-01-02T17:34:15.342Z,7.25
2023-01-02T17:36:42.519Z,3.88
2023-01-02T17:39:09.042Z,2.42
2023-01-02T17:41:35.677Z,2.30
2023-01-02T17:44:04.683Z,2.35
2023-01-02T17:47:09.087Z,2.20
2023-01-02T17:49:20.939Z,2.40
2023-01-02T17:51:47.437Z,2.85
2023-01-02T17:54:13.968Z,3.55
2023-01-02T17:56:41.667Z,2.50
2023-01-02T17:59:09.680Z,3.78
2023-01-02T18:01:37.456Z,2.55
2023-01-02T18:04:04.123Z,2.88
2023-01-02T18:06:33.526Z,2.60
2023-01-02T18:09:00.004Z,2.60
2023-01-02T18:11:26.684Z,2.55
2023-01-02T18:13:56.052Z,6.20
2023-01-02T18:16:33.451Z,13.27
2023-01-02T18:19:01.378Z,11.77
2023-01-02T18:21:34.134Z,7.32
2023-01-02T18:24:05.198Z,6.45
2023-01-02T18:26:31.753Z,4.82
2023-01-02T18:29:02.986Z,3.53
2023-01-02T18:31:40.336Z,3.95
2023-01-02T18:34:46.305Z,5.50
2023-01-02T18:37:17.234Z,6.88
2023-01-02T18:39:43.708Z,15.98
2023-01-02T18:42:14.165Z,34.30
2023-01-02T18:44:41.800Z,17.98
2023-01-02T18:47:34.487Z,8.05
2023-01-02T18:50:16.966Z,19.83
2023-01-02T18:52:48.267Z,36.95
2023-01-02T18:55:14.755Z,12.25
2023-01-02T18:57:45.943Z,15.85
2023-01-02T19:00:27.271Z,11.25
2023-01-02T19:02:56.882Z,36.50
2023-01-02T19:05:45.754Z,12.65
2023-01-02T19:08:38.552Z,12.90
2023-01-02T19:11:36.461Z,17.27
2023-01-02T19:14:13.939Z,22.77
2023-01-02T19:16:43.629Z,7.45
2023-01-02T19:19:16.842Z,6.38
2023-01-02T19:21:44.168Z,6.55
2023-01-02T19:24:25.052Z,4.78
2023-01-02T19:26:56.488Z,6.72
2023-01-02T19:29:29.652Z,6.18
2023-01-02T19:32:23.480Z,6.45
2023-01-02T19:35:00.613Z,7.35
2023-01-02T19:37:41.523Z,12.75
2023-01-02T19:40:19.813Z,11.93
2023-01-02T19:42:50.681Z,18.50
2023-01-02T19:45:22.802Z,15.50
2023-01-02T19:47:50.170Z,21.70
2023-01-02T19:50:19.567Z,24.33
2023-01-02T19:52:46.338Z,16.17
2023-01-02T19:55:13.983Z,17.08
2023-01-02T19:57:40.648Z,10.20
2023-01-02T20:00:09.651Z,6.18
2023-01-02T20:02:36.976Z,5.75
2023-01-02T20:05:03.719Z,6.10
2023-01-02T20:07:30.447Z,6.43
2023-01-02T20:09:57.085Z,5.82
2023-01-02T20:12:34.687Z,9.52
2023-01-02T20:15:08.891Z,14.55
2023-01-02T20:17:36.992Z,9.20
2023-01-02T20:20:04.971Z,7.30
2023-01-02T20:22:31.707Z,8.25
2023-01-02T20:24:58.771Z,10.48
2023-01-02T20:27:25.559Z,9.50
2023-01-02T20:29:55.159Z,10.40
2023-01-02T20:32:23.203Z,18.48
2023-01-02T20:34:50.415Z,20.58
2023-01-02T20:37:21.110Z,16.98
2023-01-02T20:39:52.210Z,16.98
2023-01-02T20:42:19.266Z,11.13
2023-01-02T20:44:46.406Z,17.42
2023-01-02T20:47:13.135Z,12.07
2023-01-02T20:49:40.361Z,14.02
2023-01-02T20:52:07.950Z,13.95
2023-01-02T20:54:35.049Z,9.95
2023-01-02T20:57:01.784Z,6.20
2023-01-02T20:59:28.383Z,7.53
2023-01-02T21:01:55.064Z,7.18
2023-01-02T21:04:29.123Z,6.68
2023-01-02T21:06:58.956Z,8.07
2023-01-02T21:09:25.482Z,7.35
2023-01-02T21:11:52.910Z,11.43
2023-01-02T21:14:19.454Z,12.50
2023-01-02T21:16:45.967Z,12.27
2023-01-02T21:19:12.453Z,12.00
2023-01-02T21:21:38.993Z,10.68
2023-01-02T21:24:05.962Z,9.50
2023-01-02T21:26:32.430Z,9.70
2023-01-02T21:28:59.197Z,11.35
2023-01-02T21:31:27.376Z,9.73
2023-01-02T21:33:54.035Z,9.00
2023-01-02T21:36:20.608Z,9.73
2023-01-02T21:38:47.188Z,9.48
2023-01-02T21:41:32.041Z,8.57
2023-01-02T21:43:58.691Z,9.45
2023-01-02T21:46:25.290Z,9.32
2023-01-02T21:48:51.889Z,11.50
2023-01-02T21:51:18.462Z,11.90
2023-01-02T21:53:45.518Z,10.43
2023-01-02T21:56:12.045Z,11.38
2023-01-02T21:58:38.506Z,9.65
2023-01-02T22:01:05.267Z,9.02
2023-01-02T22:03:31.941Z,10.95
2023-01-02T22:05:58.428Z,9.15
2023-01-02T22:08:24.894Z,8.82
2023-01-02T22:10:51.654Z,8.50
2023-01-02T22:13:18.182Z,9.40
2023-01-02T22:15:45.953Z,8.85
2023-01-02T22:18:12.600Z,10.68
2023-01-02T22:20:39.314Z,10.60
2023-01-02T22:23:06.042Z,8.63
2023-01-02T22:25:32.865Z,9.35
2023-01-02T22:27:59.613Z,9.00
2023-01-02T22:30:33.584Z,8.80
2023-01-02T22:33:01.544Z,7.60
2023-01-02T22:35:28.261Z,8.40
2023-01-02T22:37:55.332Z,11.48
2023-01-02T22:40:21.844Z,13.52
2023-01-02T22:43:03.811Z,11.55
2023-01-02T22:45:40.956Z,10.82
2023-01-02T22:48:16.392Z,17.00
2023-01-02T22:50:45.115Z,13.80
2023-01-02T22:53:41.124Z,14.47
2023-01-02T22:56:19.412Z,13.80
2023-01-02T22:58:47.146Z,11.73
2023-01-02T23:01:25.633Z,8.90
2023-01-02T23:03:52.237Z,8.30
2023-01-02T23:06:22.133Z,8.55
2023-01-02T23:08:49.693Z,8.10
2023-01-02T23:11:16.754Z,8.32
2023-01-02T23:13:43.697Z,10.02
2023-01-02T23:16:29.504Z,10.82
2023-01-02T23:19:14.440Z,10.85
2023-01-02T23:21:47.620Z,10.32
2023-01-02T23:24:18.835Z,15.48
2023-01-02T23:26:52.638Z,13.07
2023-01-02T23:29:20.166Z,10.43
2023-01-02T23:31:48.522Z,9.63
2023-01-02T23:34:17.919Z,11.18
2023-01-02T23:36:44.722Z,12.25
2023-01-02T23:39:18.187Z,10.25
2023-01-02T23:41:44.738Z,9.05
2023-01-02T23:44:12.812Z,8.32
2023-01-02T23:46:40.172Z,8.27
2023-01-02T23:49:07.623Z,9.60
2023-01-02T23:51:34.567Z,8.63
2023-01-02T23:54:01.479Z,9.20
2023-01-02T23:56:34.895Z,7.53
2023-01-02T23:59:03.829Z,7.95
